createdAt,value
2023-03-07T00:01:03.300Z,0.97
2023-03-07T00:03:31.193Z,0.50
2023-03-07T00:06:05.030Z,0.83
2023-03-07T00:08:33.450Z,0.80
2023-03-07T00:11:05.069Z,0.83
2023-03-07T00:13:33.838Z,1.30
2023-03-07T00:16:03.584Z,0.87
2023-03-07T00:18:32.189Z,0.60
2023-03-07T00:21:01.193Z,1.50
2023-03-07T00:23:30.978Z,0.80
2023-03-07T00:26:00.986Z,1.10
2023-03-07T00:28:29.225Z,1.00
2023-03-07T00:31:00.710Z,1.00
2023-03-07T00:33:29.346Z,1.53
2023-03-07T00:35:59.078Z,1.47
2023-03-07T00:38:27.467Z,1.10
2023-03-07T00:41:01.362Z,0.90
2023-03-07T00:43:30.598Z,1.13
2023-03-07T00:45:59.102Z,1.50
2023-03-07T00:48:27.501Z,1.20
2023-03-07T00:50:55.723Z,1.90
2023-03-07T00:53:23.669Z,1.17
2023-03-07T00:55:56.272Z,1.13
2023-03-07T00:58:26.649Z,1.00
2023-03-07T01:00:54.588Z,1.43
2023-03-07T01:03:23.937Z,1.07
2023-03-07T01:05:52.950Z,0.90
2023-03-07T01:08:21.843Z,1.20
2023-03-07T01:10:49.767Z,1.17
2023-03-07T01:13:20.265Z,0.80
2023-03-07T01:15:49.992Z,1.13
2023-03-07T01:18:17.894Z,1.40
2023-03-07T01:20:46.120Z,1.17
2023-03-07T01:23:14.122Z,1.40
2023-03-07T01:25:43.350Z,1.13
2023-03-07T01:28:14.737Z,0.93
2023-03-07T01:30:43.080Z,0.97
2023-03-07T01:33:12.355Z,1.13
2023-03-07T01:35:41.521Z,0.87
2023-03-07T01:38:10.155Z,1.30
2023-03-07T01:40:39.685Z,1.67
2023-03-07T01:43:32.775Z,2.67
2023-03-07T01:46:29.217Z,1.70
2023-03-07T01:49:01.766Z,1.20
2023-03-07T01:51:30.921Z,1.23
2023-03-07T01:54:01.818Z,1.30
2023-03-07T01:56:31.505Z,1.00
2023-03-07T01:58:59.551Z,1.73
2023-03-07T02:01:28.491Z,1.80
2023-03-07T02:04:04.143Z,1.03
2023-03-07T02:06:36.130Z,1.50
2023-03-07T02:09:06.549Z,0.97
2023-03-07T02:11:34.858Z,0.60
2023-03-07T02:14:02.755Z,1.00
2023-03-07T02:16:30.816Z,1.17
2023-03-07T02:19:00.421Z,1.40
2023-03-07T02:21:40.696Z,0.70
2023-03-07T02:24:20.250Z,1.73
2023-03-07T02:26:53.322Z,1.20
2023-03-07T02:29:21.870Z,0.50
2023-03-07T02:31:49.744Z,0.40
2023-03-07T02:34:22.416Z,0.73
2023-03-07T02:36:54.468Z,0.60
2023-03-07T02:39:26.187Z,0.90
2023-03-07T02:41:57.955Z,0.60
2023-03-07T02:44:26.036Z,0.70
2023-03-07T02:46:53.917Z,0.60
2023-03-07T02:49:21.976Z,1.13
2023-03-07T02:51:49.903Z,1.03
2023-03-07T02:54:17.792Z,0.40
2023-03-07T02:56:45.814Z,0.70
2023-03-07T02:59:15.162Z,1.00
2023-03-07T03:01:43.241Z,1.07
2023-03-07T03:04:11.234Z,2.87
2023-03-07T03:06:39.252Z,0.40
2023-03-07T03:09:07.195Z,1.07
2023-03-07T03:11:35.195Z,0.60
2023-03-07T03:14:03.146Z,0.93
2023-03-07T03:16:32.542Z,0.90
2023-03-07T03:19:00.834Z,0.30
2023-03-07T03:21:29.069Z,0.10
2023-03-07T03:23:57.055Z,0.73
2023-03-07T03:26:25.448Z,0.70
2023-03-07T03:28:55.672Z,0.80
2023-03-07T03:31:24.894Z,1.40
2023-03-07T03:33:55.081Z,0.60
2023-03-07T03:36:25.684Z,1.00
2023-03-07T03:38:53.991Z,3.90
2023-03-07T03:41:22.018Z,0.87
2023-03-07T03:43:50.290Z,0.70
2023-03-07T03:46:19.738Z,0.70
2023-03-07T03:48:53.413Z,0.70
2023-03-07T03:51:23.796Z,1.00
2023-03-07T03:53:52.394Z,0.80
2023-03-07T03:56:22.353Z,0.53
2023-03-07T03:58:51.735Z,0.70
2023-03-07T04:01:21.476Z,0.93
2023-03-07T04:03:50.906Z,1.20
2023-03-07T04:06:21.219Z,0.80
2023-03-07T04:08:53.038Z,1.00
2023-03-07T04:11:21.644Z,1.10
2023-03-07T04:13:49.750Z,0.80
2023-03-07T04:16:18.531Z,0.60
2023-03-07T04:18:46.879Z,0.70
2023-03-07T04:21:14.815Z,0.80
2023-03-07T04:23:42.942Z,0.60
2023-03-07T04:26:12.762Z,0.70
2023-03-07T04:28:45.652Z,0.53
2023-03-07T04:31:15.584Z,0.43
2023-03-07T04:33:44.588Z,0.60
2023-03-07T04:36:12.780Z,0.43
2023-03-07T04:38:42.200Z,0.53
2023-03-07T04:41:10.166Z,0.30
2023-03-07T04:43:39.539Z,0.40
2023-03-07T04:46:07.881Z,0.63
2023-03-07T04:48:35.812Z,0.60
2023-03-07T04:51:04.265Z,0.60
2023-03-07T04:53:32.509Z,0.73
2023-03-07T04:56:00.883Z,1.10
2023-03-07T04:58:29.164Z,0.80
2023-03-07T05:00:59.018Z,1.07
2023-03-07T05:03:27.832Z,0.90
2023-03-07T05:05:56.065Z,0.87
2023-03-07T05:08:24.500Z,0.90
2023-03-07T05:10:52.389Z,1.10
2023-03-07T05:13:20.334Z,1.00
2023-03-07T05:15:52.212Z,0.90
2023-03-07T05:18:22.485Z,1.00
2023-03-07T05:20:51.681Z,0.80
2023-03-07T05:23:20.622Z,1.00
2023-03-07T05:25:48.577Z,0.60
2023-03-07T05:28:17.450Z,0.77
2023-03-07T05:30:45.669Z,0.87
2023-03-07T05:33:15.925Z,0.80
2023-03-07T05:35:45.602Z,0.70
2023-03-07T05:38:14.144Z,0.90
2023-03-07T05:40:42.119Z,0.90
2023-03-07T05:43:10.391Z,0.70
2023-03-07T05:45:38.292Z,0.60
2023-03-07T05:48:06.781Z,0.87
2023-03-07T05:50:34.563Z,0.83
2023-03-07T05:53:04.467Z,0.70
2023-03-07T05:55:32.419Z,0.70
2023-03-07T05:58:00.318Z,0.77
2023-03-07T06:00:28.585Z,0.80
2023-03-07T06:02:56.519Z,0.80
2023-03-07T06:05:25.523Z,0.97
2023-03-07T06:07:53.527Z,0.80
2023-03-07T06:10:23.672Z,1.20
2023-03-07T06:12:52.264Z,0.90
2023-03-07T06:15:20.655Z,0.97
2023-03-07T06:17:49.025Z,0.83
2023-03-07T06:20:17.235Z,0.97
2023-03-07T06:22:45.083Z,1.00
2023-03-07T06:25:13.127Z,0.93
2023-03-07T06:27:42.874Z,1.00
2023-03-07T06:30:13.774Z,1.10
2023-03-07T06:32:41.912Z,1.10
2023-03-07T06:35:10.991Z,1.47
2023-03-07T06:37:39.002Z,12.33
2023-03-07T06:40:09.816Z,7.23
2023-03-07T06:42:38.354Z,1.00
2023-03-07T06:45:08.869Z,3.30
2023-03-07T06:47:37.121Z,1.40
2023-03-07T06:50:05.905Z,1.20
2023-03-07T06:52:34.673Z,2.53
2023-03-07T06:55:02.963Z,3.20
2023-03-07T06:57:31.141Z,1.60
2023-03-07T06:59:59.159Z,1.80
2023-03-07T07:02:28.762Z,1.60
2023-03-07T07:05:00.166Z,2.37
2023-03-07T07:07:29.168Z,3.97
2023-03-07T07:09:57.253Z,3.60
2023-03-07T07:12:26.871Z,2.20
2023-03-07T07:14:54.926Z,2.53
2023-03-07T07:17:22.853Z,1.87
2023-03-07T07:19:52.537Z,4.27
2023-03-07T07:22:20.580Z,2.33
2023-03-07T07:24:48.792Z,5.33
2023-03-07T07:27:16.811Z,1.73
2023-03-07T07:29:44.742Z,6.10
2023-03-07T07:32:12.811Z,4.73
2023-03-07T07:34:40.794Z,2.83
2023-03-07T07:37:10.187Z,1.57
2023-03-07T07:39:40.875Z,1.53
2023-03-07T07:42:09.074Z,0.93
2023-03-07T07:44:37.148Z,1.67
2023-03-07T07:47:05.199Z,0.80
2023-03-07T07:49:33.340Z,1.37
2023-03-07T07:52:01.286Z,3.67
2023-03-07T07:54:31.095Z,3.33
2023-03-07T07:56:59.040Z,2.13
2023-03-07T07:59:27.132Z,0.53
2023-03-07T08:01:55.169Z,1.17
2023-03-07T08:04:23.231Z,0.80
2023-03-07T08:06:51.132Z,1.03
2023-03-07T08:09:19.528Z,2.73
2023-03-07T08:11:48.823Z,0.63
2023-03-07T08:14:16.948Z,0.87
2023-03-07T08:16:44.910Z,0.80
2023-03-07T08:19:12.843Z,0.47
2023-03-07T08:21:40.717Z,1.83
2023-03-07T08:24:08.634Z,0.67
2023-03-07T08:26:36.707Z,0.97
2023-03-07T08:29:06.043Z,0.37
2023-03-07T08:31:33.877Z,0.40
2023-03-07T08:34:01.814Z,1.13
2023-03-07T08:36:29.741Z,2.93
2023-03-07T08:38:57.680Z,1.03
2023-03-07T08:41:25.605Z,0.90
2023-03-07T08:43:54.805Z,0.97
2023-03-07T08:46:25.384Z,0.50
2023-03-07T08:48:53.740Z,0.63
2023-03-07T08:51:21.657Z,2.00
2023-03-07T08:53:49.507Z,1.60
2023-03-07T08:56:19.256Z,0.40
2023-03-07T08:58:47.646Z,0.47
2023-03-07T09:01:15.556Z,0.53
2023-03-07T09:03:45.124Z,0.47
2023-03-07T09:06:18.562Z,0.93
2023-03-07T09:08:47.391Z,1.07
2023-03-07T09:11:15.942Z,1.67
2023-03-07T09:13:51.806Z,1.70
2023-03-07T09:16:22.043Z,1.97
2023-03-07T09:18:51.811Z,0.83
2023-03-07T09:21:19.956Z,1.23
2023-03-07T09:23:48.240Z,1.37
2023-03-07T09:26:16.717Z,1.73
2023-03-07T09:28:44.928Z,1.50
2023-03-07T09:31:15.040Z,0.90
2023-03-07T09:33:46.552Z,1.10
2023-03-07T09:36:18.161Z,1.53
2023-03-07T09:38:47.094Z,1.63
2023-03-07T09:41:43.825Z,1.80
2023-03-07T09:44:22.168Z,1.60
2023-03-07T09:47:04.470Z,1.27
2023-03-07T09:49:40.109Z,1.27
2023-03-07T09:52:14.632Z,1.23
2023-03-07T09:54:47.040Z,1.00
2023-03-07T09:57:21.027Z,1.30
2023-03-07T09:59:53.732Z,1.30
2023-03-07T10:02:29.641Z,0.93
2023-03-07T10:05:04.546Z,1.23
2023-03-07T10:07:35.666Z,1.10
2023-03-07T10:10:07.330Z,1.33
2023-03-07T10:13:04.725Z,1.77
2023-03-07T10:15:45.572Z,1.50
2023-03-07T10:18:25.975Z,1.60
2023-03-07T10:21:04.260Z,1.70
2023-03-07T10:24:00.866Z,1.67
2023-03-07T10:26:33.663Z,1.40
2023-03-07T10:29:11.302Z,1.07
2023-03-07T10:31:43.078Z,1.17
2023-03-07T10:34:26.695Z,1.60
2023-03-07T10:37:08.334Z,1.60
2023-03-07T10:39:43.668Z,1.97
2023-03-07T10:42:13.256Z,1.97
2023-03-07T10:44:42.201Z,1.20
2023-03-07T10:47:19.972Z,1.00
2023-03-07T10:49:49.292Z,1.10
2023-03-07T10:52:30.616Z,1.03
2023-03-07T10:55:37.968Z,1.00
2023-03-07T10:58:21.717Z,1.20
2023-03-07T11:01:15.004Z,1.40
2023-03-07T11:03:53.478Z,0.93
2023-03-07T11:06:39.329Z,0.97
2023-03-07T11:09:27.399Z,1.00
2023-03-07T11:11:59.746Z,0.90
2023-03-07T11:14:29.206Z,0.70
2023-03-07T11:16:59.374Z,0.70
2023-03-07T11:19:36.718Z,0.70
2023-03-07T11:22:07.006Z,0.90
2023-03-07T11:24:39.274Z,1.10
2023-03-07T11:27:22.464Z,0.80
2023-03-07T11:30:17.071Z,0.90
2023-03-07T11:32:52.453Z,1.20
2023-03-07T11:35:23.344Z,1.50
2023-03-07T11:38:03.202Z,0.50
2023-03-07T11:40:33.348Z,0.60
2023-03-07T11:43:12.744Z,1.30
2023-03-07T11:45:48.355Z,0.67
2023-03-07T11:48:28.262Z,1.10
2023-03-07T11:50:58.576Z,0.43
2023-03-07T11:53:41.039Z,0.77
2023-03-07T11:56:22.715Z,0.60
2023-03-07T11:59:28.958Z,0.70
2023-03-07T12:02:00.225Z,0.50
2023-03-07T12:04:54.783Z,0.60
2023-03-07T12:07:41.188Z,0.50
2023-03-07T12:10:22.467Z,0.60
2023-03-07T12:13:03.362Z,0.70
2023-03-07T12:15:41.836Z,0.50
2023-03-07T12:18:39.893Z,0.73
2023-03-07T12:21:25.073Z,0.73
2023-03-07T12:23:58.095Z,0.50
2023-03-07T12:26:33.837Z,0.47
2023-03-07T12:29:07.947Z,0.60
2023-03-07T12:31:39.122Z,0.60
2023-03-07T12:34:14.156Z,0.40
2023-03-07T12:36:49.173Z,0.67
2023-03-07T12:39:21.309Z,0.60
2023-03-07T12:41:58.043Z,0.60
2023-03-07T12:44:35.641Z,0.80
2023-03-07T12:47:16.478Z,0.53
2023-03-07T12:49:52.646Z,0.70
2023-03-07T12:52:32.317Z,1.40
2023-03-07T12:55:05.866Z,1.00
2023-03-07T12:57:38.657Z,0.40
2023-03-07T13:00:11.758Z,0.93
2023-03-07T13:02:44.692Z,0.80
2023-03-07T13:05:21.608Z,0.70
2023-03-07T13:07:51.521Z,1.33
2023-03-07T13:10:22.580Z,0.67
2023-03-07T13:12:52.025Z,1.20
2023-03-07T13:15:59.388Z,0.60
2023-03-07T13:18:29.865Z,0.97
2023-03-07T13:21:15.457Z,0.50
2023-03-07T13:23:44.811Z,0.87
2023-03-07T13:26:14.693Z,0.87
2023-03-07T13:28:45.628Z,0.83
2023-03-07T13:31:29.452Z,1.20
2023-03-07T13:33:57.877Z,0.70
2023-03-07T13:36:34.544Z,0.50
2023-03-07T13:39:04.565Z,0.70
2023-03-07T13:41:47.616Z,0.80
2023-03-07T13:44:31.593Z,1.53
2023-03-07T13:47:05.149Z,0.60
2023-03-07T13:49:38.859Z,0.73
2023-03-07T13:52:32.556Z,1.07
2023-03-07T13:55:05.386Z,0.90
2023-03-07T13:57:41.849Z,1.73
2023-03-07T14:00:39.468Z,1.10
2023-03-07T14:03:29.038Z,0.63
2023-03-07T14:06:00.699Z,0.93
2023-03-07T14:08:33.012Z,0.80
2023-03-07T14:11:02.555Z,0.60
2023-03-07T14:14:05.863Z,0.90
2023-03-07T14:16:50.691Z,0.50
2023-03-07T14:19:39.114Z,0.80
2023-03-07T14:22:19.622Z,0.80
2023-03-07T14:25:11.701Z,0.70
2023-03-07T14:27:52.476Z,0.90
2023-03-07T14:30:21.572Z,0.73
2023-03-07T14:32:49.960Z,0.60
2023-03-07T14:35:34.816Z,0.97
2023-03-07T14:38:03.772Z,0.80
2023-03-07T14:40:37.643Z,0.87
2023-03-07T14:43:26.726Z,0.60
2023-03-07T14:46:03.932Z,0.97
2023-03-07T14:48:48.576Z,0.77
2023-03-07T14:51:19.292Z,1.20
2023-03-07T14:53:47.631Z,1.17
2023-03-07T14:56:22.763Z,0.80
2023-03-07T14:58:56.153Z,0.93
2023-03-07T15:01:24.058Z,1.10
2023-03-07T15:03:54.379Z,0.70
2023-03-07T15:06:24.509Z,0.73
2023-03-07T15:08:53.207Z,0.70
2023-03-07T15:11:33.135Z,0.87
2023-03-07T15:14:05.738Z,0.70
2023-03-07T15:16:38.129Z,0.87
2023-03-07T15:19:13.252Z,0.90
2023-03-07T15:21:45.933Z,0.63
2023-03-07T15:24:19.492Z,1.03
2023-03-07T15:26:51.249Z,0.70
2023-03-07T15:29:23.980Z,0.80
2023-03-07T15:31:54.968Z,0.67
2023-03-07T15:34:26.190Z,0.80
2023-03-07T15:36:54.872Z,0.90
2023-03-07T15:39:34.480Z,0.80
2023-03-07T15:42:05.788Z,0.80
2023-03-07T15:44:36.433Z,0.70
2023-03-07T15:47:07.555Z,0.60
2023-03-07T15:49:41.941Z,0.80
2023-03-07T15:52:22.009Z,0.60
2023-03-07T15:54:52.772Z,0.90
2023-03-07T15:57:23.211Z,1.37
2023-03-07T15:59:57.059Z,1.83
2023-03-07T16:02:46.559Z,1.83
2023-03-07T16:05:38.208Z,1.30
2023-03-07T16:08:12.889Z,0.70
2023-03-07T16:10:50.586Z,0.63
2023-03-07T16:13:22.197Z,0.80
2023-03-07T16:16:02.596Z,1.23
2023-03-07T16:18:32.268Z,0.93
2023-03-07T16:21:00.320Z,0.70
2023-03-07T16:23:31.491Z,0.70
2023-03-07T16:26:03.761Z,0.60
2023-03-07T16:28:32.152Z,0.67
2023-03-07T16:31:01.446Z,0.53
2023-03-07T16:33:29.410Z,0.60
2023-03-07T16:35:57.428Z,0.90
2023-03-07T16:38:25.488Z,0.83
2023-03-07T16:40:53.481Z,1.10
2023-03-07T16:43:34.515Z,1.10
2023-03-07T16:46:06.659Z,1.20
2023-03-07T16:48:35.049Z,0.97
2023-03-07T16:51:03.426Z,1.27
2023-03-07T16:53:31.414Z,0.90
2023-03-07T16:56:00.275Z,1.93
2023-03-07T16:58:30.605Z,2.00
2023-03-07T17:00:59.234Z,2.13
2023-03-07T17:03:29.838Z,1.90
2023-03-07T17:05:58.629Z,0.90
2023-03-07T17:08:27.047Z,2.30
2023-03-07T17:10:54.913Z,2.43
2023-03-07T17:13:22.964Z,2.07
2023-03-07T17:15:51.003Z,6.37
2023-03-07T17:18:19.165Z,6.07
2023-03-07T17:20:48.529Z,2.93
2023-03-07T17:23:16.536Z,3.73
2023-03-07T17:25:44.417Z,7.10
2023-03-07T17:28:15.556Z,5.57
2023-03-07T17:30:45.635Z,3.93
2023-03-07T17:33:15.114Z,1.80
2023-03-07T17:35:43.352Z,4.10
2023-03-07T17:38:12.890Z,4.87
2023-03-07T17:40:41.246Z,2.60
2023-03-07T17:43:09.327Z,1.20
2023-03-07T17:45:39.627Z,1.20
2023-03-07T17:48:07.905Z,1.20
2023-03-07T17:50:36.493Z,1.37
2023-03-07T17:53:04.544Z,1.67
2023-03-07T17:55:34.152Z,1.80
2023-03-07T17:58:02.255Z,4.83
2023-03-07T18:00:30.209Z,8.53
2023-03-07T18:02:58.187Z,6.30
2023-03-07T18:05:38.812Z,3.17
2023-03-07T18:08:18.766Z,2.53
2023-03-07T18:10:48.149Z,1.97
2023-03-07T18:13:16.080Z,2.67
2023-03-07T18:15:46.674Z,6.90
2023-03-07T18:18:14.740Z,7.37
2023-03-07T18:20:42.691Z,6.57
2023-03-07T18:23:11.102Z,7.63
2023-03-07T18:25:39.039Z,5.73
2023-03-07T18:28:08.577Z,7.37
2023-03-07T18:30:36.556Z,9.73
2023-03-07T18:33:04.541Z,9.47
2023-03-07T18:35:33.325Z,7.67
2023-03-07T18:38:01.288Z,8.83
2023-03-07T18:40:29.363Z,8.60
2023-03-07T18:42:59.459Z,8.73
2023-03-07T18:45:29.135Z,9.83
2023-03-07T18:47:57.084Z,6.33
2023-03-07T18:50:25.147Z,5.90
2023-03-07T18:52:53.216Z,6.17
2023-03-07T18:55:21.337Z,7.27
2023-03-07T18:57:49.470Z,5.47
2023-03-07T19:00:18.148Z,8.23
2023-03-07T19:03:09.105Z,9.10
2023-03-07T19:05:43.543Z,8.00
2023-03-07T19:08:11.475Z,7.30
2023-03-07T19:10:40.256Z,9.93
2023-03-07T19:13:09.211Z,7.70
2023-03-07T19:15:37.454Z,9.77
2023-03-07T19:18:07.380Z,8.60
2023-03-07T19:20:35.522Z,6.00
2023-03-07T19:23:03.421Z,6.20
2023-03-07T19:25:32.030Z,5.07
2023-03-07T19:27:59.946Z,4.60
2023-03-07T19:30:28.998Z,3.83
2023-03-07T19:33:00.273Z,4.40
2023-03-07T19:35:29.709Z,4.80
2023-03-07T19:37:57.694Z,2.70
2023-03-07T19:40:28.718Z,2.30
2023-03-07T19:42:56.651Z,2.13
2023-03-07T19:45:24.555Z,1.70
2023-03-07T19:47:52.505Z,1.80
2023-03-07T19:50:20.641Z,2.00
2023-03-07T19:52:50.051Z,1.67
2023-03-07T19:55:18.196Z,3.00
2023-03-07T19:57:46.908Z,2.77
2023-03-07T20:00:16.035Z,3.00
2023-03-07T20:02:44.052Z,3.33
2023-03-07T20:05:11.956Z,3.53
2023-03-07T20:07:39.856Z,3.40
2023-03-07T20:10:12.383Z,4.00
2023-03-07T20:12:40.429Z,4.20
2023-03-07T20:15:09.892Z,3.60
2023-03-07T20:17:38.019Z,3.40
2023-03-07T20:20:08.328Z,3.50
2023-03-07T20:22:36.498Z,3.40
2023-03-07T20:25:04.499Z,3.77
2023-03-07T20:27:34.200Z,3.40
2023-03-07T20:30:02.769Z,3.23
2023-03-07T20:32:31.238Z,3.20
2023-03-07T20:35:03.476Z,22.40
2023-03-07T20:37:33.153Z,13.00
2023-03-07T20:40:04.555Z,4.97
2023-03-07T20:42:34.340Z,7.30
2023-03-07T20:45:02.254Z,5.60
2023-03-07T20:47:30.410Z,4.63
2023-03-07T20:49:58.528Z,3.50
2023-03-07T20:52:26.650Z,2.50
2023-03-07T20:54:54.757Z,3.17
2023-03-07T20:57:22.768Z,3.13
2023-03-07T20:59:52.129Z,4.80
2023-03-07T21:02:20.155Z,4.20
2023-03-07T21:04:49.863Z,2.90
2023-03-07T21:07:17.981Z,2.47
2023-03-07T21:09:50.888Z,2.03
2023-03-07T21:12:18.842Z,2.63
2023-03-07T21:14:47.021Z,2.23
2023-03-07T21:17:16.518Z,2.10
2023-03-07T21:19:44.689Z,2.07
2023-03-07T21:22:12.937Z,2.10
2023-03-07T21:24:41.231Z,1.90
2023-03-07T21:27:09.499Z,1.90
2023-03-07T21:29:37.601Z,2.07
2023-03-07T21:32:06.157Z,2.10
2023-03-07T21:34:35.589Z,2.20
2023-03-07T21:37:03.957Z,1.77
2023-03-07T21:39:32.159Z,1.90
2023-03-07T21:42:00.486Z,2.30
2023-03-07T21:44:28.560Z,1.80
2023-03-07T21:46:56.714Z,1.83
2023-03-07T21:49:24.607Z,2.23
2023-03-07T21:51:53.998Z,2.13
2023-03-07T21:54:22.009Z,2.70
2023-03-07T21:56:49.913Z,2.60
2023-03-07T21:59:17.800Z,2.30
2023-03-07T22:01:45.865Z,2.80
2023-03-07T22:04:14.001Z,2.13
2023-03-07T22:06:42.031Z,2.50
2023-03-07T22:09:11.350Z,1.90
2023-03-07T22:11:39.287Z,2.20
2023-03-07T22:14:07.153Z,4.73
2023-03-07T22:16:35.153Z,3.23
2023-03-07T22:19:03.015Z,3.73
2023-03-07T22:21:31.296Z,3.10
2023-03-07T22:24:00.982Z,2.97
2023-03-07T22:26:32.597Z,2.90
2023-03-07T22:29:00.716Z,2.30
2023-03-07T22:31:28.676Z,2.27
2023-03-07T22:33:56.764Z,2.50
2023-03-07T22:36:24.767Z,2.17
2023-03-07T22:38:55.407Z,2.37
2023-03-07T22:41:23.894Z,2.07
2023-03-07T22:43:54.324Z,1.90
2023-03-07T22:46:22.977Z,1.90
2023-03-07T22:48:53.920Z,2.23
2023-03-07T22:51:23.256Z,2.40
2023-03-07T22:53:51.602Z,2.00
2023-03-07T22:56:21.493Z,2.00
2023-03-07T22:58:49.789Z,2.20
2023-03-07T23:01:21.365Z,1.80
2023-03-07T23:03:49.925Z,2.00
2023-03-07T23:06:18.317Z,2.13
2023-03-07T23:08:47.184Z,1.60
2023-03-07T23:11:16.106Z,2.00
2023-03-07T23:13:44.309Z,1.63
2023-03-07T23:16:14.724Z,2.27
2023-03-07T23:18:45.033Z,2.20
2023-03-07T23:21:15.248Z,2.40
2023-03-07T23:23:43.170Z,2.23
2023-03-07T23:26:16.918Z,2.00
2023-03-07T23:28:44.894Z,2.30
2023-03-07T23:31:17.544Z,1.83
2023-03-07T23:33:47.190Z,1.83
2023-03-07T23:36:15.186Z,2.17
2023-03-07T23:38:44.427Z,2.50
2023-03-07T23:41:12.310Z,2.40
2023-03-07T23:43:40.325Z,2.00
2023-03-07T23:46:08.278Z,1.80
2023-03-07T23:48:36.135Z,2.17
2023-03-07T23:51:05.764Z,2.07
2023-03-07T23:53:33.627Z,2.60
2023-03-07T23:56:01.526Z,1.70
2023-03-07T23:58:29.526Z,2.10
